Time;durP1;ratioP1;P1;durP2;ratioP2;P2;SDS_P1;SDS_P2;PMS_P1;PMS_P2;Temp;Humidity;BMP_temperature;BMP_pressure;BME280_temperature;BME280_humidity;BME280_pressure;Samples;Min_cycle;Max_cycle;Signal;HPM_P1;HPM_P2
2022/01/29 00:01:17;;;;;;;;;;;;;;;24.29;22.04;101021.84;5055523;28;1553;-41
2022/01/29 00:03:42;;;;;;;;;;;;;;;24.32;22.06;101023.38;5055653;28;845;-42
2022/01/29 00:06:08;;;;;;;;;;;;;;;24.32;21.96;101020.69;5055154;28;820;-40
2022/01/29 00:08:33;;;;;;;;;;;;;;;24.28;21.96;101019.31;5056877;28;770;-41
2022/01/29 00:11:17;;;;;;;;;;;;;;;24.27;21.96;101023.88;5064750;28;730;-41
2022/01/29 00:13:42;;;;;;;;;;;;;;;24.31;22.03;101033.28;5059106;28;848;-39
2022/01/29 00:16:08;;;;;;;;;;;;;;;24.63;21.92;101047.09;5059317;28;774;-41
2022/01/29 00:18:33;;;;;;;;;;;;;;;26.02;20.04;101054.16;5059570;28;1965;-41
2022/01/29 00:20:59;;;;;;;;;;;;;;;26.92;19.15;101060.63;5060261;28;1543;-41
2022/01/29 00:23:24;;;;;;;;;;;;;;;27.24;18.85;101064.25;5059357;28;816;-41
2022/01/29 00:25:49;;;;;;;;;;;;;;;27.24;18.66;101075.03;5059180;28;892;-42
2022/01/29 00:28:14;;;;;;;;;;;;;;;27.20;18.77;101074.56;5058682;28;767;-41
2022/01/29 00:30:42;;;;;;;;;;;;;;;27.54;18.47;101074.38;5058514;28;866;-41
2022/01/29 00:33:08;;;;;;;;;;;;;;;27.55;18.45;101081.44;5058168;28;1175;-41
2022/01/29 00:35:33;;;;;;;;;;;;;;;27.76;18.17;101070.03;5058871;28;948;-41
2022/01/29 00:37:58;;;;;;;;;;;;;;;27.91;18.14;101069.28;5059025;28;1905;-40
2022/01/29 00:40:24;;;;;;;;;;;;;;;27.81;18.54;101066.81;5059016;28;1025;-42
2022/01/29 00:42:49;;;;;;;;;;;;;;;27.79;18.44;101068.84;5058593;28;797;-41
2022/01/29 00:45:15;;;;;;;;;;;;;;;27.83;18.33;101073.72;5058620;28;827;-39
2022/01/29 00:47:40;;;;;;;;;;;;;;;27.98;18.19;101051.28;5058835;28;935;-41
2022/01/29 00:50:06;;;;;;;;;;;;;;;28.14;18.10;101068.41;5058442;28;822;-41
2022/01/29 00:52:31;;;;;;;;;;;;;;;28.02;18.22;101059.88;5058776;28;914;-41
2022/01/29 00:54:56;;;;;;;;;;;;;;;28.07;18.28;101057.47;5058870;28;802;-41
2022/01/29 00:57:22;;;;;;;;;;;;;;;27.98;18.57;101064.81;5058416;28;730;-41
2022/01/29 00:59:47;;;;;;;;;;;;;;;28.05;18.31;101054.09;5057966;28;1969;-41
2022/01/29 01:02:13;;;;;;;;;;;;;;;28.21;18.03;101064.78;5058604;28;845;-41
2022/01/29 01:04:39;;;;;;;;;;;;;;;28.17;18.20;101054.50;5058375;28;794;-41
2022/01/29 01:07:05;;;;;;;;;;;;;;;28.18;18.03;101057.03;5058374;28;830;-41
2022/01/29 01:09:31;;;;;;;;;;;;;;;28.17;18.25;101049.09;5058168;28;881;-41
2022/01/29 01:11:56;;;;;;;;;;;;;;;27.92;18.69;101044.75;5057511;28;801;-42
2022/01/29 01:14:21;;;;;;;;;;;;;;;27.77;18.84;101057.38;5057811;28;866;-40
2022/01/29 01:16:46;;;;;;;;;;;;;;;27.49;18.88;101048.72;5058442;28;845;-41
2022/01/29 01:19:12;;;;;;;;;;;;;;;27.00;19.98;101053.34;5057821;28;1905;-41
2022/01/29 01:21:37;;;;;;;;;;;;;;;26.86;19.87;101052.19;5057778;28;901;-42
2022/01/29 01:24:02;;;;;;;;;;;;;;;26.61;20.25;101046.06;5058418;28;890;-41
2022/01/29 01:26:28;;;;;;;;;;;;;;;26.54;20.49;101051.28;5057833;28;1541;-40
2022/01/29 01:28:53;;;;;;;;;;;;;;;26.57;20.31;101050.09;5057253;28;880;-41
2022/01/29 01:31:18;;;;;;;;;;;;;;;26.83;20.13;101059.78;5058514;28;869;-41
2022/01/29 01:33:46;;;;;;;;;;;;;;;26.59;20.51;101056.16;5057549;28;876;-40
2022/01/29 01:36:13;;;;;;;;;;;;;;;26.68;20.34;101063.22;5058046;28;739;-41
2022/01/29 01:38:48;;;;;;;;;;;;;;;26.59;20.38;101057.00;5057303;28;1906;-41
2022/01/29 01:41:14;;;;;;;;;;;;;;;26.70;20.17;101063.03;5058298;28;805;-40
2022/01/29 01:43:39;;;;;;;;;;;;;;;26.60;20.13;101058.69;5057620;28;865;-41
2022/01/29 01:46:04;;;;;;;;;;;;;;;26.62;20.06;101056.66;5039004;28;1232;-40
2022/01/29 01:48:30;;;;;;;;;;;;;;;26.34;20.65;101054.34;5057895;28;803;-41
2022/01/29 01:50:55;;;;;;;;;;;;;;;26.27;20.66;101051.47;5057357;28;845;-40
2022/01/29 01:53:20;;;;;;;;;;;;;;;26.35;20.67;101047.94;5057518;28;789;-39
2022/01/29 01:55:46;;;;;;;;;;;;;;;26.60;20.33;101038.94;5057404;28;871;-41
2022/01/29 01:58:12;;;;;;;;;;;;;;;26.57;20.42;101053.63;5057250;28;1902;-41
2022/01/29 02:00:37;;;;;;;;;;;;;;;26.60;20.36;101057.84;5057285;28;841;-41
2022/01/29 02:03:02;;;;;;;;;;;;;;;26.59;20.37;101050.78;5057244;28;826;-41
2022/01/29 02:05:28;;;;;;;;;;;;;;;26.68;20.17;101049.72;5057398;28;747;-41
2022/01/29 02:07:53;;;;;;;;;;;;;;;26.69;20.18;101050.56;5057066;28;1695;-41
2022/01/29 02:10:19;;;;;;;;;;;;;;;26.78;20.06;101050.38;5057471;28;817;-41
2022/01/29 02:12:46;;;;;;;;;;;;;;;26.86;20.18;101057.59;5057044;28;900;-41
2022/01/29 02:15:12;;;;;;;;;;;;;;;26.76;20.34;101065.91;5057216;28;907;-41
2022/01/29 02:17:37;;;;;;;;;;;;;;;26.64;20.37;101073.50;5057124;28;1902;-41
2022/01/29 02:20:02;;;;;;;;;;;;;;;26.77;20.33;101075.69;5056617;28;1271;-41
2022/01/29 02:22:28;;;;;;;;;;;;;;;27.05;19.80;101087.09;5056798;28;862;-41
2022/01/29 02:24:53;;;;;;;;;;;;;;;27.03;19.88;101092.66;5057309;28;776;-41
2022/01/29 02:27:18;;;;;;;;;;;;;;;26.84;20.08;101086.59;5056904;28;801;-42
2022/01/29 02:29:44;;;;;;;;;;;;;;;26.55;20.61;101088.03;5055634;28;929;-41
2022/01/29 02:32:09;;;;;;;;;;;;;;;26.82;20.09;101088.66;5056477;28;783;-41
2022/01/29 02:34:35;;;;;;;;;;;;;;;26.90;20.32;101085.09;5056622;28;877;-41
2022/01/29 02:37:00;;;;;;;;;;;;;;;26.67;20.24;101082.28;5056773;28;888;-42
2022/01/29 02:39:26;;;;;;;;;;;;;;;26.75;20.21;101080.41;5056526;28;1981;-42
2022/01/29 02:41:51;;;;;;;;;;;;;;;26.58;20.54;101081.44;5055666;28;826;-41
2022/01/29 02:44:20;;;;;;;;;;;;;;;26.80;19.83;101081.75;5056467;28;818;-42
2022/01/29 02:46:57;;;;;;;;;;;;;;;27.07;19.68;101088.63;5057150;28;813;-42
2022/01/29 02:49:25;;;;;;;;;;;;;;;26.71;19.98;101081.75;5056000;28;830;-41
2022/01/29 02:51:51;;;;;;;;;;;;;;;26.97;19.84;101086.09;5056558;28;816;-42
2022/01/29 02:54:17;;;;;;;;;;;;;;;26.96;20.06;101088.97;5055915;28;880;-42
2022/01/29 02:56:42;;;;;;;;;;;;;;;26.66;20.06;101089.53;5056834;28;848;-41
2022/01/29 02:59:07;;;;;;;;;;;;;;;26.89;19.90;101091.50;5055694;28;1906;-42
2022/01/29 03:01:33;;;;;;;;;;;;;;;26.83;20.39;101087.63;5056440;28;747;-41
2022/01/29 03:03:58;;;;;;;;;;;;;;;26.99;20.02;101091.31;5055613;28;826;-41
2022/01/29 03:06:23;;;;;;;;;;;;;;;26.64;20.29;101094.28;5055834;28;785;-41
2022/01/29 03:08:49;;;;;;;;;;;;;;;26.71;20.13;101103.34;5056408;28;754;-41
2022/01/29 03:11:19;;;;;;;;;;;;;;;26.83;20.48;101098.44;5055393;28;894;-40
2022/01/29 03:13:44;;;;;;;;;;;;;;;26.96;20.01;101099.75;5056029;28;947;-41
2022/01/29 03:16:09;;;;;;;;;;;;;;;26.85;20.29;101099.09;5056100;28;843;-42
2022/01/29 03:18:35;;;;;;;;;;;;;;;26.88;20.32;101096.06;5055592;28;1898;-41
2022/01/29 03:21:00;;;;;;;;;;;;;;;26.94;19.91;101102.63;5055934;28;1014;-43
2022/01/29 03:23:25;;;;;;;;;;;;;;;26.68;20.36;101103.69;5056339;28;919;-40
2022/01/29 03:25:50;;;;;;;;;;;;;;;26.59;20.66;101107.44;5055744;28;770;-41
2022/01/29 03:28:16;;;;;;;;;;;;;;;26.84;20.07;101113.59;5056520;28;822;-41
2022/01/29 03:30:41;;;;;;;;;;;;;;;27.09;19.82;101120.84;5055525;28;841;-40
2022/01/29 03:33:06;;;;;;;;;;;;;;;26.89;19.98;101115.81;5054936;28;850;-41
2022/01/29 03:35:32;;;;;;;;;;;;;;;26.93;20.31;101116.28;5055543;28;837;-41
2022/01/29 03:37:57;;;;;;;;;;;;;;;26.89;20.44;101113.94;5037246;28;1910;-42
2022/01/29 03:40:22;;;;;;;;;;;;;;;26.67;20.30;101126.31;5055434;28;800;-41
2022/01/29 03:43:00;;;;;;;;;;;;;;;26.61;20.49;101119.72;5036734;28;1330;-41
2022/01/29 03:45:25;;;;;;;;;;;;;;;26.63;20.54;101115.00;5054691;28;853;-42
2022/01/29 03:47:51;;;;;;;;;;;;;;;26.83;20.16;101120.03;5054919;28;734;-42
2022/01/29 03:50:16;;;;;;;;;;;;;;;26.89;20.35;101111.22;5055596;28;838;-41
2022/01/29 03:52:41;;;;;;;;;;;;;;;27.04;19.89;101109.72;5055530;28;769;-42
2022/01/29 03:55:07;;;;;;;;;;;;;;;27.21;19.83;101116.72;5055055;28;806;-42
2022/01/29 03:57:32;;;;;;;;;;;;;;;27.28;19.43;101119.56;5055422;28;896;-42
2022/01/29 03:59:57;;;;;;;;;;;;;;;26.73;20.23;101122.06;5054918;28;1967;-42
2022/01/29 04:02:23;;;;;;;;;;;;;;;27.11;19.67;101126.91;5055182;28;857;-42
2022/01/29 04:04:48;;;;;;;;;;;;;;;26.86;20.10;101130.47;5055521;28;857;-42
2022/01/29 04:07:14;;;;;;;;;;;;;;;26.73;20.22;101135.56;5055524;28;909;-42
2022/01/29 04:09:39;;;;;;;;;;;;;;;26.77;20.15;101148.56;5055111;28;1023;-42
2022/01/29 04:12:05;;;;;;;;;;;;;;;26.74;19.84;101156.16;5055382;28;798;-42
2022/01/29 04:14:38;;;;;;;;;;;;;;;26.70;19.95;101170.97;5055064;28;856;-41
2022/01/29 04:17:04;;;;;;;;;;;;;;;26.55;20.15;101165.41;5055217;28;766;-42
2022/01/29 04:19:29;;;;;;;;;;;;;;;26.74;20.06;101175.03;5054819;28;1949;-42
2022/01/29 04:21:55;;;;;;;;;;;;;;;26.68;20.06;101173.00;5055514;28;758;-42
2022/01/29 04:24:20;;;;;;;;;;;;;;;27.01;19.93;101189.16;5054519;28;876;-42
2022/01/29 04:26:45;;;;;;;;;;;;;;;25.09;17.61;101185.16;5061854;28;1424;-41
2022/01/29 04:29:11;;;;;;;;;;;;;;;24.29;17.07;101187.69;5055056;28;804;-41
2022/01/29 04:34:19;;;;;;;;;;;;;;;24.13;16.86;101189.19;5055852;28;797;-41
2022/01/29 04:36:45;;;;;;;;;;;;;;;24.13;16.63;101193.69;5055093;28;849;-41
2022/01/29 04:39:10;;;;;;;;;;;;;;;24.15;16.25;101202.47;5054991;28;1977;-39
2022/01/29 04:41:35;;;;;;;;;;;;;;;24.04;16.06;101200.84;5055413;28;738;-39
2022/01/29 04:44:00;;;;;;;;;;;;;;;23.88;16.03;101214.91;5054763;28;889;-42
2022/01/29 04:46:26;;;;;;;;;;;;;;;23.71;15.97;101218.25;5055352;28;794;-40
2022/01/29 04:48:53;;;;;;;;;;;;;;;23.64;16.23;101219.84;5054641;28;920;-39
2022/01/29 04:51:18;;;;;;;;;;;;;;;23.24;16.49;101219.94;5055022;28;869;-39
2022/01/29 04:53:43;;;;;;;;;;;;;;;21.35;18.56;101215.28;5056403;28;787;-40
2022/01/29 04:56:09;;;;;;;;;;;;;;;24.92;17.72;101222.72;5057511;28;1387;-41
2022/01/29 04:58:34;;;;;;;;;;;;;;;26.22;17.03;101223.72;5058857;28;1957;-33
2022/01/29 05:00:59;;;;;;;;;;;;;;;26.14;18.02;101235.31;5058092;28;999;-43
2022/01/29 05:03:25;;;;;;;;;;;;;;;25.43;18.62;101222.88;5058398;28;862;-41
2022/01/29 05:05:50;;;;;;;;;;;;;;;25.70;18.71;101224.72;5058830;28;832;-41
2022/01/29 05:08:17;;;;;;;;;;;;;;;25.54;19.12;101226.31;5058989;28;826;-41
2022/01/29 05:10:42;;;;;;;;;;;;;;;25.60;19.35;101227.50;5058503;28;937;-41
2022/01/29 05:13:10;;;;;;;;;;;;;;;25.74;19.38;101226.09;5058330;28;1079;-41
2022/01/29 05:15:43;;;;;;;;;;;;;;;25.58;19.67;101237.59;5058081;28;1208;-42
2022/01/29 05:29:03;;;;;;;;;;;;;;;26.28;19.40;101257.25;5057995;28;872;-41
2022/01/29 05:31:29;;;;;;;;;;;;;;;26.02;19.99;101263.59;5057472;28;897;-41
2022/01/29 05:33:54;;;;;;;;;;;;;;;26.11;19.88;101262.59;5058228;28;764;-41
2022/01/29 05:36:19;;;;;;;;;;;;;;;26.51;19.36;101257.50;5058349;28;781;-41
2022/01/29 05:38:44;;;;;;;;;;;;;;;26.03;20.07;101265.25;5057462;28;1907;-41
2022/01/29 05:41:10;;;;;;;;;;;;;;;26.17;19.79;101261.13;5057939;28;872;-42
2022/01/29 05:43:35;;;;;;;;;;;;;;;26.12;20.01;101260.75;5058321;28;730;-41
2022/01/29 05:46:00;;;;;;;;;;;;;;;26.47;19.57;101258.84;5056962;28;837;-42
2022/01/29 05:48:26;;;;;;;;;;;;;;;26.43;19.71;101262.88;5058048;28;777;-41
2022/01/29 05:50:51;;;;;;;;;;;;;;;26.49;19.68;101262.19;5058158;28;734;-41
2022/01/29 05:53:16;;;;;;;;;;;;;;;26.61;19.83;101260.03;5057271;28;845;-42
2022/01/29 05:55:41;;;;;;;;;;;;;;;26.60;19.72;101268.28;5057985;28;866;-41
2022/01/29 05:58:07;;;;;;;;;;;;;;;26.43;19.63;101278.22;5058043;28;1910;-41
2022/01/29 06:00:32;;;;;;;;;;;;;;;26.58;19.83;101291.91;5057069;28;856;-42
2022/01/29 06:03:04;;;;;;;;;;;;;;;26.68;19.77;101299.84;5057699;28;857;-42
2022/01/29 06:05:29;;;;;;;;;;;;;;;26.75;19.72;101293.63;5056417;28;754;-41
2022/01/29 06:07:55;;;;;;;;;;;;;;;26.69;19.58;101294.28;5057578;28;781;-41
2022/01/29 06:10:21;;;;;;;;;;;;;;;26.69;19.59;101299.69;5057529;28;826;-42
2022/01/29 06:12:56;;;;;;;;;;;;;;;26.66;19.90;101310.78;5057345;28;837;-42
2022/01/29 06:15:21;;;;;;;;;;;;;;;26.96;19.54;101300.38;5057490;28;766;-42
2022/01/29 06:17:46;;;;;;;;;;;;;;;26.88;19.30;101301.22;5056967;28;1973;-41
2022/01/29 06:20:11;;;;;;;;;;;;;;;26.86;19.37;101305.94;5057398;28;1176;-42
2022/01/29 06:22:37;;;;;;;;;;;;;;;26.75;19.86;101312.50;5056950;28;808;-41
2022/01/29 06:25:02;;;;;;;;;;;;;;;27.02;19.25;101323.19;5057413;28;822;-42
2022/01/29 06:27:27;;;;;;;;;;;;;;;26.90;19.31;101318.09;5056976;28;827;-42
2022/01/29 06:29:53;;;;;;;;;;;;;;;26.92;19.80;101319.78;5056361;28;893;-42
2022/01/29 06:32:18;;;;;;;;;;;;;;;26.90;19.63;101322.66;5057006;28;885;-41
2022/01/29 06:34:43;;;;;;;;;;;;;;;27.10;19.53;101320.50;5056902;28;1058;-41
2022/01/29 06:37:08;;;;;;;;;;;;;;;27.14;19.56;101321.00;5057278;28;1215;-42
2022/01/29 06:39:34;;;;;;;;;;;;;;;27.31;19.28;101318.28;5057322;28;1981;-41
2022/01/29 06:41:59;;;;;;;;;;;;;;;27.47;19.09;101317.41;5056926;28;758;-41
2022/01/29 06:44:24;;;;;;;;;;;;;;;27.65;19.20;101316.34;5055894;28;1006;-42
2022/01/29 06:46:50;;;;;;;;;;;;;;;27.59;19.23;101320.59;5057028;28;1225;-42
2022/01/29 06:49:15;;;;;;;;;;;;;;;27.59;19.36;101318.72;5056319;28;1030;-42
2022/01/29 06:51:41;;;;;;;;;;;;;;;27.63;19.32;101324.63;5056487;28;1208;-42
2022/01/29 06:54:06;;;;;;;;;;;;;;;27.65;19.28;101333.41;5056543;28;907;-42
2022/01/29 06:56:31;;;;;;;;;;;;;;;27.50;19.48;101326.03;5056162;28;865;-42
2022/01/29 06:58:57;;;;;;;;;;;;;;;28.21;18.52;101337.16;5056453;28;1902;-42
2022/01/29 07:01:22;;;;;;;;;;;;;;;27.93;18.70;101335.72;5056365;28;861;-42
2022/01/29 07:03:47;;;;;;;;;;;;;;;28.31;18.79;101337.75;5055860;28;857;-42
2022/01/29 07:06:13;;;;;;;;;;;;;;;28.68;18.48;101351.63;5056883;28;794;-42
2022/01/29 07:08:39;;;;;;;;;;;;;;;28.05;18.61;101346.16;5055491;28;811;-42
2022/01/29 07:11:04;;;;;;;;;;;;;;;27.93;18.80;101351.97;5056477;28;877;-42
2022/01/29 07:13:31;;;;;;;;;;;;;;;28.09;18.90;101355.63;5055880;28;950;-42
2022/01/29 07:15:56;;;;;;;;;;;;;;;28.18;18.61;101356.41;5056056;28;1124;-41
2022/01/29 07:18:21;;;;;;;;;;;;;;;28.19;19.00;101355.41;5055694;28;1967;-42
2022/01/29 07:20:48;;;;;;;;;;;;;;;27.99;18.96;101362.06;5055634;28;1173;-42
2022/01/29 07:23:13;;;;;;;;;;;;;;;27.95;19.21;101368.00;5056194;28;1279;-41
2022/01/29 07:25:38;;;;;;;;;;;;;;;27.84;19.17;101375.47;5056277;28;838;-42
2022/01/29 07:28:04;;;;;;;;;;;;;;;27.87;19.33;101380.56;5056385;28;802;-41
2022/01/29 07:30:29;;;;;;;;;;;;;;;27.90;19.21;101381.19;5055372;28;899;-41
2022/01/29 07:32:54;;;;;;;;;;;;;;;28.54;18.63;101391.16;5055655;28;952;-41
2022/01/29 07:35:20;;;;;;;;;;;;;;;28.98;18.29;101396.97;5055263;28;1443;-41
2022/01/29 07:37:45;;;;;;;;;;;;;;;29.45;17.78;101403.22;5055624;28;1073;-41
2022/01/29 07:40:10;;;;;;;;;;;;;;;28.16;18.96;101413.41;5056414;28;1906;-42
2022/01/29 07:42:36;;;;;;;;;;;;;;;27.67;19.91;101409.78;5056217;28;857;-41
2022/01/29 07:45:02;;;;;;;;;;;;;;;27.53;19.82;101410.47;5055052;28;762;-42
2022/01/29 07:47:27;;;;;;;;;;;;;;;27.32;19.68;101415.38;5055734;28;850;-42
2022/01/29 07:49:53;;;;;;;;;;;;;;;27.21;19.89;101416.53;5055791;28;1376;-41
2022/01/29 07:52:18;;;;;;;;;;;;;;;27.13;19.89;101416.50;5055524;28;996;-41
2022/01/29 07:54:43;;;;;;;;;;;;;;;27.37;19.45;101414.84;5055458;28;849;-41
2022/01/29 07:57:08;;;;;;;;;;;;;;;27.43;19.52;101416.03;5056166;28;898;-41
2022/01/29 07:59:34;;;;;;;;;;;;;;;27.82;19.38;101418.06;5054921;28;1886;-42
2022/01/29 08:01:59;;;;;;;;;;;;;;;28.04;19.32;101418.38;5055100;28;1274;-38
2022/01/29 08:04:24;;;;;;;;;;;;;;;28.30;19.11;101422.66;5055817;28;849;-38
2022/01/29 08:06:50;;;;;;;;;;;;;;;28.06;19.30;101420.88;5055412;28;1021;-41
2022/01/29 08:09:15;;;;;;;;;;;;;;;28.05;19.54;101411.06;5054756;28;1259;-41
2022/01/29 08:11:41;;;;;;;;;;;;;;;29.02;18.42;101414.56;5054214;28;1113;-41
2022/01/29 08:14:06;;;;;;;;;;;;;;;29.11;18.24;101425.34;5055109;28;1061;-42
2022/01/29 08:16:31;;;;;;;;;;;;;;;28.59;18.90;101428.50;5054216;28;1452;-42
2022/01/29 08:18:57;;;;;;;;;;;;;;;28.19;19.52;101423.91;5055541;28;1957;-41
2022/01/29 08:21:22;;;;;;;;;;;;;;;28.07;19.68;101430.69;5055150;28;1006;-42
2022/01/29 08:23:47;;;;;;;;;;;;;;;28.20;19.62;101425.56;5053044;28;1580;-43
2022/01/29 08:26:13;;;;;;;;;;;;;;;28.25;19.45;101433.16;5053369;28;1232;-41
2022/01/29 08:28:38;;;;;;;;;;;;;;;29.24;18.51;101430.16;5056116;28;950;-41
2022/01/29 08:31:04;;;;;;;;;;;;;;;29.15;18.14;101432.94;5058968;28;1067;-41
2022/01/29 08:33:29;;;;;;;;;;;;;;;28.93;18.50;101427.28;5058694;28;1092;-42
2022/01/29 08:35:56;;;;;;;;;;;;;;;29.44;18.24;101434.06;5059440;28;841;-41
2022/01/29 08:38:22;;;;;;;;;;;;;;;29.82;17.96;101432.41;5058204;28;1898;-42
2022/01/29 08:40:47;;;;;;;;;;;;;;;29.26;18.42;101444.38;5058879;28;1104;-41
2022/01/29 08:43:12;;;;;;;;;;;;;;;28.53;19.21;101438.16;5059299;28;778;-41
2022/01/29 08:45:38;;;;;;;;;;;;;;;28.34;19.85;101437.53;5058362;28;955;-41
2022/01/29 08:48:03;;;;;;;;;;;;;;;28.36;19.47;101437.41;5058734;28;1723;-41
2022/01/29 08:50:28;;;;;;;;;;;;;;;28.70;18.45;101440.78;5059269;28;772;-41
2022/01/29 08:52:54;;;;;;;;;;;;;;;28.54;18.33;101445.28;5058783;28;1144;-41
2022/01/29 08:55:19;;;;;;;;;;;;;;;28.87;17.76;101448.81;5058804;28;790;-41
2022/01/29 08:57:45;;;;;;;;;;;;;;;28.89;17.47;101449.50;5058970;28;754;-41
2022/01/29 09:00:11;;;;;;;;;;;;;;;28.78;17.79;101454.28;5058258;28;1906;-41
2022/01/29 09:02:36;;;;;;;;;;;;;;;28.77;17.45;101451.75;5058726;28;830;-40
2022/01/29 09:05:02;;;;;;;;;;;;;;;28.71;17.73;101462.25;5058979;28;785;-40
2022/01/29 09:07:28;;;;;;;;;;;;;;;28.52;17.36;101458.13;5058103;28;845;-41
2022/01/29 09:09:54;;;;;;;;;;;;;;;28.39;17.64;101457.84;5058638;28;778;-42
2022/01/29 09:12:19;;;;;;;;;;;;;;;28.28;17.49;101450.94;5058714;28;809;-41
2022/01/29 09:14:44;;;;;;;;;;;;;;;28.22;17.67;101452.44;5058129;28;833;-41
2022/01/29 09:17:10;;;;;;;;;;;;;;;28.02;17.77;101457.41;5057828;28;829;-41
2022/01/29 09:19:35;;;;;;;;;;;;;;;27.87;18.38;101450.00;5058224;28;1898;-41
2022/01/29 09:22:00;;;;;;;;;;;;;;;27.92;18.09;101458.44;5058209;28;754;-41
2022/01/29 09:24:26;;;;;;;;;;;;;;;27.85;18.64;101454.72;5057742;28;829;-41
2022/01/29 09:26:51;;;;;;;;;;;;;;;27.79;18.33;101445.44;5058367;28;782;-41
2022/01/29 09:29:16;;;;;;;;;;;;;;;27.78;18.77;101443.75;5057242;28;877;-41
2022/01/29 09:31:41;;;;;;;;;;;;;;;27.82;18.71;101447.81;5057758;28;1124;-41
2022/01/29 09:34:07;;;;;;;;;;;;;;;27.96;18.51;101448.94;5058247;28;865;-41
2022/01/29 09:36:32;;;;;;;;;;;;;;;28.37;18.56;101447.19;5057580;28;777;-41
2022/01/29 09:38:57;;;;;;;;;;;;;;;28.84;17.97;101450.03;5057787;28;1887;-41
2022/01/29 09:41:26;;;;;;;;;;;;;;;27.94;18.81;101442.91;5055929;28;1093;-42
2022/01/29 09:43:52;;;;;;;;;;;;;;;27.50;19.21;101449.47;5057997;28;830;-41
2022/01/29 09:46:17;;;;;;;;;;;;;;;27.62;19.48;101448.13;5057452;28;1089;-41
2022/01/29 09:48:43;;;;;;;;;;;;;;;27.51;19.67;101448.44;5039815;28;1252;-41
2022/01/29 09:51:12;;;;;;;;;;;;;;;27.58;19.47;101444.06;5058216;28;731;-41
2022/01/29 09:53:38;;;;;;;;;;;;;;;28.21;19.04;101451.59;5058304;28;857;-41
2022/01/29 09:56:04;;;;;;;;;;;;;;;28.67;18.13;101441.13;5057679;28;888;-41
2022/01/29 09:58:29;;;;;;;;;;;;;;;28.39;18.38;101442.47;5056882;28;1968;-42
2022/01/29 10:00:54;;;;;;;;;;;;;;;28.60;18.13;101441.84;5057366;28;972;-42
2022/01/29 10:03:20;;;;;;;;;;;;;;;28.77;18.23;101433.66;5057467;28;885;-41
2022/01/29 10:05:51;;;;;;;;;;;;;;;28.69;18.16;101422.88;5057875;28;1519;-41
2022/01/29 10:08:16;;;;;;;;;;;;;;;28.41;18.33;101437.69;5057524;28;856;-41
2022/01/29 10:10:42;;;;;;;;;;;;;;;28.48;18.54;101430.56;5057190;28;841;-41
2022/01/29 10:13:20;;;;;;;;;;;;;;;28.48;18.63;101422.44;5057273;28;810;-41
2022/01/29 10:15:46;;;;;;;;;;;;;;;28.33;18.81;101427.75;5056788;28;1035;-41
2022/01/29 10:18:11;;;;;;;;;;;;;;;28.26;18.46;101424.00;5057413;28;1897;-41
2022/01/29 10:20:43;;;;;;;;;;;;;;;28.11;18.82;101432.88;5025320;28;1406;-41
2022/01/29 10:23:08;;;;;;;;;;;;;;;28.08;18.66;101424.25;5057101;28;802;-40
2022/01/29 10:25:36;;;;;;;;;;;;;;;28.07;18.58;101422.56;5056661;28;829;-41
2022/01/29 10:28:07;;;;;;;;;;;;;;;28.06;18.83;101420.88;5056778;28;1720;-42
2022/01/29 10:30:34;;;;;;;;;;;;;;;28.05;19.18;101419.19;5058916;28;830;-42
2022/01/29 10:33:18;;;;;;;;;;;;;;;27.94;19.10;101417.69;5060609;28;872;-42
2022/01/29 10:35:44;;;;;;;;;;;;;;;27.87;18.98;101417.53;5038265;28;1264;-41
2022/01/29 10:38:09;;;;;;;;;;;;;;;28.04;19.18;101398.56;5057102;28;1973;-41
2022/01/29 10:40:34;;;;;;;;;;;;;;;28.33;18.83;101411.53;5056730;28;1101;-42
2022/01/29 10:43:03;;;;;;;;;;;;;;;28.84;18.08;101423.78;5056537;28;1009;-42
2022/01/29 10:45:35;;;;;;;;;;;;;;;27.69;19.83;101402.38;5057124;28;1534;-41
2022/01/29 10:48:01;;;;;;;;;;;;;;;27.41;19.81;101410.78;5059173;28;805;-41
2022/01/29 10:50:26;;;;;;;;;;;;;;;27.36;19.86;101405.91;5038724;28;823;-42
2022/01/29 10:52:52;;;;;;;;;;;;;;;27.32;20.35;101401.84;5056078;28;962;-41
2022/01/29 10:55:17;;;;;;;;;;;;;;;27.62;20.14;101398.63;5056203;28;958;-41
2022/01/29 10:57:45;;;;;;;;;;;;;;;28.41;19.18;101399.00;5055005;28;1089;-41
2022/01/29 11:00:24;;;;;;;;;;;;;;;28.67;18.65;101401.38;5055719;28;1968;-41
2022/01/29 11:02:53;;;;;;;;;;;;;;;28.55;18.76;101395.53;5055696;28;1061;-42
2022/01/29 11:05:19;;;;;;;;;;;;;;;28.59;18.48;101396.03;5056243;28;1025;-42
2022/01/29 11:07:51;;;;;;;;;;;;;;;28.76;18.46;101396.75;5055920;28;1227;-41
2022/01/29 11:10:16;;;;;;;;;;;;;;;28.71;18.51;101402.69;5055721;28;1076;-41
2022/01/29 11:12:42;;;;;;;;;;;;;;;28.68;18.26;101397.66;5055828;28;1085;-41
2022/01/29 11:15:07;;;;;;;;;;;;;;;28.59;18.23;101391.44;5047527;28;1262;-41
2022/01/29 11:17:33;;;;;;;;;;;;;;;28.49;18.66;101390.81;5050324;28;1277;-41
2022/01/29 11:20:00;;;;;;;;;;;;;;;28.42;18.73;101387.13;5050517;28;1894;-41
2022/01/29 11:22:26;;;;;;;;;;;;;;;28.33;18.72;101384.47;5062192;28;1216;-41
2022/01/29 11:24:58;;;;;;;;;;;;;;;28.32;18.59;101390.88;5055876;28;1014;-41
2022/01/29 11:27:24;;;;;;;;;;;;;;;28.42;18.65;101395.25;5055510;28;801;-41
2022/01/29 11:29:55;;;;;;;;;;;;;;;28.26;18.69;101388.03;5055876;28;1023;-41
2022/01/29 11:32:21;;;;;;;;;;;;;;;28.14;18.76;101387.56;5061747;28;1692;-42
2022/01/29 11:34:59;;;;;;;;;;;;;;;27.98;18.59;101383.88;5055536;28;757;-41
2022/01/29 11:37:50;;;;;;;;;;;;;;;27.68;18.86;101376.34;5055635;28;833;-42
2022/01/29 11:40:18;;;;;;;;;;;;;;;27.74;18.69;101378.34;5026740;28;1914;-41
2022/01/29 11:43:07;;;;;;;;;;;;;;;27.84;19.23;101369.22;5056433;28;750;-42
2022/01/29 11:45:44;;;;;;;;;;;;;;;28.67;18.10;101378.88;5055654;28;911;-42
2022/01/29 11:48:25;;;;;;;;;;;;;;;27.55;19.34;101378.69;5055299;28;813;-42
2022/01/29 11:50:50;;;;;;;;;;;;;;;27.41;19.66;101372.97;5051143;28;758;-42
2022/01/29 11:53:16;;;;;;;;;;;;;;;27.45;19.82;101382.44;5055641;28;738;-42
2022/01/29 11:55:43;;;;;;;;;;;;;;;27.68;19.46;101376.34;5056074;28;782;-41
2022/01/29 11:58:15;;;;;;;;;;;;;;;27.39;19.64;101381.25;5055354;28;1890;-41
2022/01/29 12:00:41;;;;;;;;;;;;;;;27.77;19.45;101387.16;5046414;28;1288;-42
2022/01/29 12:03:06;;;;;;;;;;;;;;;28.59;18.48;101390.59;5055168;28;889;-41
2022/01/29 12:05:50;;;;;;;;;;;;;;;28.42;18.60;101392.53;5055572;28;1758;-42
2022/01/29 12:08:18;;;;;;;;;;;;;;;27.94;19.33;101385.25;5053971;28;1450;-41
2022/01/29 12:10:53;;;;;;;;;;;;;;;27.80;19.07;101389.50;5055231;28;1026;-42
2022/01/29 12:13:18;;;;;;;;;;;;;;;27.75;19.19;101393.56;5055763;28;1053;-42
2022/01/29 12:15:43;;;;;;;;;;;;;;;27.93;18.92;101397.06;5054353;28;981;-42
2022/01/29 12:18:44;;;;;;;;;;;;;;;28.20;18.30;101401.22;5055445;28;1963;-42
2022/01/29 12:21:09;;;;;;;;;;;;;;;28.43;17.64;101399.63;4997290;28;1385;-43
2022/01/29 12:23:55;;;;;;;;;;;;;;;28.37;17.91;101398.50;5012250;28;911;-42
2022/01/29 12:26:21;;;;;;;;;;;;;;;28.69;17.35;101401.22;5017880;28;1867;-42
2022/01/29 12:28:50;;;;;;;;;;;;;;;28.99;17.09;101398.69;5020419;28;888;-42
2022/01/29 12:31:17;;;;;;;;;;;;;;;29.03;16.88;101400.00;5020153;28;805;-42
2022/01/29 12:33:42;;;;;;;;;;;;;;;28.56;17.41;101404.50;5027175;28;1034;-42
2022/01/29 12:36:09;;;;;;;;;;;;;;;28.04;18.15;101404.00;5035303;28;841;-42
2022/01/29 12:38:37;;;;;;;;;;;;;;;28.33;17.77;101399.84;5035048;28;1955;-42
2022/01/29 12:41:04;;;;;;;;;;;;;;;28.84;17.02;101402.13;5019543;28;1022;-42
2022/01/29 12:43:32;;;;;;;;;;;;;;;28.34;17.40;101402.38;5029336;28;1080;-42
2022/01/29 12:46:10;;;;;;;;;;;;;;;28.19;17.89;101406.81;5034732;28;1101;-42
2022/01/29 12:48:37;;;;;;;;;;;;;;;28.00;17.86;101411.59;5035692;28;878;-41
2022/01/29 12:51:06;;;;;;;;;;;;;;;28.23;17.41;101402.72;5034940;28;849;-41
2022/01/29 12:53:31;;;;;;;;;;;;;;;28.51;17.23;101410.41;5029936;28;837;-42
2022/01/29 12:56:03;;;;;;;;;;;;;;;28.39;17.58;101412.69;5015795;28;764;-42
2022/01/29 12:58:31;;;;;;;;;;;;;;;28.42;17.53;101409.63;5016482;28;1890;-42
2022/01/29 13:01:00;;;;;;;;;;;;;;;28.73;16.94;101408.78;5017040;28;1043;-42
2022/01/29 13:03:27;;;;;;;;;;;;;;;28.29;17.43;101402.06;5016360;28;854;-42